createdAt,value
2023-04-13T00:04:42.964Z,98966.04
2023-04-13T00:19:48.209Z,98941.20
2023-04-13T00:34:52.100Z,98944.30
2023-04-13T00:50:01.549Z,98940.02
2023-04-13T01:05:06.270Z,98947.19
2023-04-13T01:20:12.173Z,98954.72
2023-04-13T01:35:15.327Z,98960.83
2023-04-13T01:50:28.870Z,98948.66
2023-04-13T02:05:32.720Z,98944.56
2023-04-13T02:20:43.005Z,98931.20
2023-04-13T02:35:46.094Z,98942.98
2023-04-13T02:50:48.714Z,98943.86
2023-04-13T03:05:52.340Z,98952.42
2023-04-13T03:20:54.898Z,98944.88
2023-04-13T03:35:57.615Z,98957.25
2023-04-13T03:51:00.232Z,98961.98
2023-04-13T04:06:02.919Z,98977.48
2023-04-13T04:21:06.909Z,98966.84
2023-04-13T04:36:14.059Z,98994.01
2023-04-13T04:51:18.418Z,99011.83
2023-04-13T05:06:21.327Z,99031.48
2023-04-13T05:21:23.930Z,99037.84
2023-04-13T05:36:26.626Z,99045.92
2023-04-13T05:51:34.027Z,99047.82
2023-04-13T06:06:36.751Z,99056.39
2023-04-13T06:21:39.383Z,99065.99
2023-04-13T06:36:42.498Z,99080.58
2023-04-13T06:51:45.381Z,99086.64
2023-04-13T07:06:48.008Z,99096.96
2023-04-13T07:21:50.620Z,99119.69
2023-04-13T07:36:53.228Z,99114.86
2023-04-13T07:51:56.020Z,99126.47
2023-04-13T08:07:03.336Z,99141.70
2023-04-13T08:22:05.955Z,99150.52
2023-04-13T08:37:08.772Z,99162.77
2023-04-13T08:52:12.697Z,99162.56
2023-04-13T09:07:29.094Z,99174.63
2023-04-13T09:22:32.061Z,99171.48
2023-04-13T09:37:36.809Z,99177.09
2023-04-13T09:52:40.717Z,99178.23
2023-04-13T10:07:46.667Z,99185.23
2023-04-13T10:22:50.542Z,99196.91
2023-04-13T10:37:59.380Z,99213.02
2023-04-13T10:53:07.865Z,99221.25
2023-04-13T11:08:20.807Z,99239.89
2023-04-13T11:23:24.531Z,99262.05
2023-04-13T11:38:28.763Z,99267.06
2023-04-13T11:53:33.611Z,99276.15
2023-04-13T12:08:37.949Z,99283.27
2023-04-13T12:23:52.773Z,99285.25
2023-04-13T12:38:56.484Z,99273.96
2023-04-13T12:53:59.467Z,99280.25
2023-04-13T13:09:02.286Z,99285.83
2023-04-13T13:24:06.605Z,99298.56
2023-04-13T13:39:10.060Z,99292.09
2023-04-13T13:54:12.927Z,99292.79
2023-04-13T14:09:15.554Z,99301.09
2023-04-13T14:24:18.246Z,99295.70
2023-04-13T14:39:20.989Z,99315.73
2023-04-13T14:54:23.539Z,99308.27
2023-04-13T15:09:27.792Z,99315.64
2023-04-13T15:24:30.644Z,99316.49
2023-04-13T15:39:33.263Z,99315.80
2023-04-13T15:54:36.115Z,99321.36
2023-04-13T16:09:39.136Z,99334.16
2023-04-13T16:24:42.059Z,99349.05
2023-04-13T16:39:45.691Z,99357.27
2023-04-13T16:54:48.347Z,99356.02
2023-04-13T17:09:51.160Z,99364.72
2023-04-13T17:24:54.188Z,99379.96
2023-04-13T17:39:56.855Z,99405.86
2023-04-13T17:54:59.510Z,99434.04
2023-04-13T18:10:02.363Z,99442.02
2023-04-13T18:25:05.588Z,99448.92
2023-04-13T18:40:09.335Z,99464.02
2023-04-13T18:55:12.051Z,99486.63
2023-04-13T19:10:14.765Z,99490.35
2023-04-13T19:25:17.813Z,99496.30
2023-04-13T19:40:23.104Z,99496.69
2023-04-13T19:55:27.109Z,99504.47
2023-04-13T20:10:31.712Z,99513.30
2023-04-13T20:25:34.637Z,99513.98
2023-04-13T20:40:37.512Z,99500.16
2023-04-13T20:55:42.008Z,99495.52
2023-04-13T21:10:44.792Z,99495.39
2023-04-13T21:25:47.789Z,99491.73
2023-04-13T21:40:51.113Z,99466.34
2023-04-13T21:55:53.829Z,99446.98
2023-04-13T22:10:56.639Z,99431.00
2023-04-13T22:26:01.435Z,99417.37
2023-04-13T22:41:07.612Z,99420.87
2023-04-13T22:56:10.221Z,99412.35
2023-04-13T23:11:13.094Z,99413.89
2023-04-13T23:26:15.816Z,99404.48
2023-04-13T23:41:18.377Z,99394.73
2023-04-13T23:56:21.253Z,99388.83
